Details From KRDU - Raleigh Durham Intl
To TAPA - Antigua - V C Bird Intl
Flight Number -
Tags Generated
Created
Modified
Stats Distance 1,445 nm / 2,676 km
Max Altitude 0 ft / 0 m
Waypoints 3
Social Downloads 4
Likes 0
Share VATSIM

Download

Looking for another format? Having issues loading an existing format? Contact us
Advertisement - Login to hide

Notes

Generated

Route

KRDU ANU TAPA

ID Type Via Altitude Latitude Longitude Leg Dist Tot Dist Heading (true) Name
O KRDU APT - 0 ft / 0 m 35.87503˚ -78.78268˚ - 0 nm - -
ANU NDB - 0 ft / 0 m 17.12625˚ -61.81075˚ 1444 nm 1444 nm 137° / 145° -
O TAPA APT - 0 ft / 0 m 17.13024˚ -61.80367˚ 0 nm 1444 nm 59° / 59° -

Altitude Profile

Advertisement - Login to hide

Weather


0- 5 10 15 20 25 30 35+ Temperature / ° C

Clouds and Precipitation
Forecast for 2018-05-28 00:00 UTC. Updated 19 minutes ago

Ground ~20,000 ft ~40,000 ft Winds

KRDU

Details ICAO KRDU (RDU)
Name Raleigh Durham Intl
Region United States
Timezone America/New_York (UTC-4.0)
Stats Elevation 435 ft / 133 m (AMSL)
Location 35.875863° -78.785598°
Runways 3
Magnetic Variation 9.203° W

METAR

KRDU 272251Z 19009KT 10SM SCT055 BKN150 BKN250 27/21 A2997 RMK AO2 SLP144 T02720206 $

Decode

TAF

KRDU 271904Z 2719/2818 20010KT P6SM BKN035 BKN150 FM280700 VRB03KT P6SM BKN015 FM281300 12007KT 4SM -SHRA BR OVC010

Decode

Departure Runways

ID Width Length Bearing (true) Bearing (mag) Surface Threshold Offset Overrun Length
05L 150 ft / 46 m 10,002 ft / 3,049 m 45.02° 54.22° Concrete 0 ft / 0 m 200 ft / 61 m
05R 150 ft / 46 m 7,503 ft / 2,287 m 45.01° 54.21° Asphalt 0 ft / 0 m 200 ft / 61 m
14 100 ft / 30 m 3,571 ft / 1,088 m 135.28° 144.48° Asphalt 0 ft / 0 m 0 ft / 0 m
23L 150 ft / 46 m 7,503 ft / 2,287 m 225.02° 234.22° Asphalt 0 ft / 0 m 200 ft / 61 m
23R 150 ft / 46 m 10,002 ft / 3,049 m 225.03° 234.23° Concrete 0 ft / 0 m 200 ft / 61 m
32 100 ft / 30 m 3,571 ft / 1,088 m 315.28° 324.48° Asphalt 0 ft / 0 m 0 ft / 0 m

TAPA

Details ICAO TAPA (ANU)
Name Antigua - V C Bird Intl
Region Antigua and Barbuda
Timezone America/Antigua (UTC-4.0)
Stats Elevation 62 ft / 19 m (AMSL)
Location 17.136737° -61.792662°
Runways 1
Magnetic Variation 14.777° W

METAR

TAPA 272300Z 12007KT 9999 FEW017 SCT038 26/23 Q1017 NOSIG

Decode

TAF

TAF TAF TAPA 271125Z 2712/2812 10010KT 9999 SCT018 SCT035 PROB40 TEMPO 2712/2724 SHRA FEW012CB BKN014 BKN038 PROB40 TEMPO 2800/2812 SHRA

Decode

Destination Runways

ID Width Length Bearing (true) Bearing (mag) Surface Threshold Offset Overrun Length
07 148 ft / 45 m 9,022 ft / 2,750 m 58.28° 73.06° Asphalt 656 ft / 200 m 0 ft / 0 m
25 148 ft / 45 m 9,022 ft / 2,750 m 238.29° 253.07° Asphalt 0 ft / 0 m 0 ft / 0 m